Skip Navigation LinksHome page > Weather > Current weather Skip Navigation Links

Current Weather

Moundou, Chad

For information only: do not use for flight planning or navigation.
Latest weather
Observation time Thursday, September 29, 2016 1:00 PM WAT
Local time Thursday, September 29, 2016 2:39 PM WAT
Flight conditions Visual Meteorological Conditions
Winds
Wind direction East (100°)
Wind speed 5 mph
Visibility 6.2 mi.
Sky condition
Ceiling unlimited
Cloud layer few clouds 4,000 ft.
Temperature 86°F
Dewpoint 73°F
Altimeter 29.91 in.Hg
Derived measurements
Relative humidity 66%
Heat index 93°F
Density altitude 2531 ft.
METAR FTTD 291200Z 10004KT 9999 FEW040 30/23 Q1013

Settings

Location code

InnerDrive.Weather 4.0.5722.1 Release CLR 4.0.30319.34209
Copyright ©2015 Inner Drive Technology. All rights reserved. Portions Copyright ©1986-2015 David Braverman.

Find weather

Site navigation


Skip Navigation Links

Place info

Page info

PayPal - The safer, easier way to pay online!

Return home.

Copyright ©2016 Inner Drive Technology. Purveyors of fine, hand-crafted computer software. Page printed 2016-09-29T13:39:10 UTC.